Terminal Aerodrome Forecast
Issued by NWS

Home | Current Version | Previous Version | Text Only | Print | Product List | Glossary Off
Versions: 1 2 3 4 5 6 7 8 9 10 11 12 13 14

000
FTUS43 KBIS 171740
TAFJMS
TAF
KJMS 171740Z 1718/1818 33014KT P6SM BKN200
     FM180000 35005KT P6SM BKN110
     FM181200 32012KT P6SM BKN070
     FM181400 31013G22KT P6SM SCT030=

USA.gov is the U.S. government's official web portal to all federal, state and local government web resources and services.